Du har inga inställningar för hoppväder.nu

Hoppväder.nu

Senast uppdaterat 03:21

UTC-tid

2021-10-25 kl. 01:21


Sol och måne

Solen går upp 8:22 och går ner 18:08 (beräknade cirkatider)
Nästa fullmåne blir om 25 dagar (2021-11-19)

METAR

ESKM (Mora)
(31 minuter sedan)
ESKM 250050Z AUTO 22009KT 180V260 9999 BKN023/// OVC076/// 10/07 Q1010=















TAF

ESKM (Mora)
ESKM





Kodnycklar till TAF och METAR






LHP

(Tallhed är område se41c i Delområde 1)

Prognos är inte uppdaterad






Preliminär prognos